NCAR-RAP Real-Time Weather Data

Output produced by METARs form (25 June 2022  04:50 UTC)
found at http://weather.rap.ucar.edu/surface/
 
KRDG 250354Z AUTO 00000KT 8SM CLR 21/18 A3006 RMK AO2 SLP182 T02110178
KRDG 250254Z 00000KT 8SM CLR 22/18 A3006 RMK AO2 SLP180 T02220183 51007
KRDG 250154Z 20003KT 9SM CLR 24/18 A3006 RMK AO2 SLP180 T02390183
KRDG 250054Z 23005KT 10SM CLR 24/18 A3005 RMK AO2 SLP178 T02440183
KRDG 242354Z 25004KT 10SM CLR 26/18 A3003 RMK AO2 SLP173 T02610183 10278 20256 53005
KRDG 242254Z 25005KT 10SM CLR 27/18 A3002 RMK AO2 SLP169 T02720178
KRDG 242154Z 24007KT 10SM CLR 27/18 A3002 RMK AO2 SLP167 T02720183
KRDG 242054Z 29004KT 10SM CLR 27/19 A3002 RMK AO2 SLP169 T02720189 58006
KRDG 241954Z 30006KT 10SM SCT027 27/19 A3003 RMK AO2 SLP171 T02720189
KRDG 241854Z VRB06KT 10SM SCT027 27/19 A3003 RMK AO2 SLP173 T02670189
KRDG 241754Z VRB04KT 10SM BKN027 26/18 A3004 RMK AO2 SLP175 T02560183 10261 20156 58007
KRDG 241654Z VRB04KT 9SM BKN027 25/18 A3006 RMK AO2 SLP181 T02500178